createdAt,value
2022-08-09T00:00:00.717Z,20.40
2022-08-09T00:02:33.114Z,19.80
2022-08-09T00:06:15.396Z,19.70
2022-08-09T00:07:52.370Z,19.60
2022-08-09T00:10:24.319Z,19.70
2022-08-09T00:12:53.355Z,19.60
2022-08-09T00:15:26.525Z,19.30
2022-08-09T00:18:05.512Z,19.00
2022-08-09T00:20:42.112Z,19.10
2022-08-09T00:23:55.459Z,19.10
2022-08-09T00:26:05.081Z,19.20
2022-08-09T00:28:34.373Z,19.30
2022-08-09T00:31:30.728Z,19.40
2022-08-09T00:33:53.215Z,19.40
2022-08-09T00:36:29.538Z,19.60
2022-08-09T00:38:58.652Z,19.60
2022-08-09T00:44:16.377Z,19.60
2022-08-09T00:44:26.374Z,19.50
2022-08-09T00:47:05.565Z,19.40
2022-08-09T00:49:34.623Z,19.40
2022-08-09T00:52:28.209Z,19.30
2022-08-09T00:54:54.828Z,19.30
2022-08-09T00:57:24.602Z,19.20
2022-08-09T01:00:02.882Z,19.10
2022-08-09T01:02:33.948Z,19.30
2022-08-09T01:05:13.999Z,19.30
2022-08-09T01:08:00.178Z,19.30
2022-08-09T01:10:35.030Z,19.30
2022-08-09T01:13:09.699Z,19.10
2022-08-09T01:15:52.579Z,18.90
2022-08-09T01:18:29.907Z,18.70
2022-08-09T01:21:10.919Z,18.80
2022-08-09T01:24:02.774Z,18.90
2022-08-09T01:26:46.332Z,18.80
2022-08-09T01:29:28.134Z,18.80
2022-08-09T01:32:30.738Z,18.80
2022-08-09T01:34:49.534Z,18.90
2022-08-09T01:37:42.753Z,18.90
2022-08-09T01:40:11.235Z,18.80
2022-08-09T01:42:53.603Z,18.80
2022-08-09T01:45:23.347Z,18.90
2022-08-09T01:47:53.017Z,18.90
2022-08-09T01:50:29.970Z,18.80
2022-08-09T01:53:19.212Z,18.70
2022-08-09T01:55:50.620Z,18.50
2022-08-09T01:58:23.995Z,18.50
2022-08-09T02:00:54.371Z,18.30
2022-08-09T02:03:23.122Z,18.40
2022-08-09T02:06:06.159Z,18.50
2022-08-09T02:08:57.546Z,18.30
2022-08-09T02:11:42.638Z,18.10
2022-08-09T02:14:26.206Z,18.00
2022-08-09T02:16:59.827Z,18.00
2022-08-09T02:19:43.916Z,18.10
2022-08-09T02:22:31.626Z,17.90
2022-08-09T02:25:06.753Z,17.60
2022-08-09T02:27:58.012Z,17.70
2022-08-09T02:30:27.095Z,17.80
2022-08-09T02:32:55.973Z,18.10
2022-08-09T02:36:03.407Z,18.10
2022-08-09T02:38:28.498Z,18.20
2022-08-09T02:41:00.081Z,18.20
2022-08-09T02:43:30.062Z,18.20
2022-08-09T02:46:18.505Z,18.20
2022-08-09T02:48:47.726Z,18.00
2022-08-09T02:51:21.323Z,18.10
2022-08-09T02:54:00.513Z,18.20
2022-08-09T02:56:31.337Z,18.40
2022-08-09T02:59:01.683Z,18.50
2022-08-09T03:02:05.560Z,18.40
2022-08-09T03:04:21.471Z,18.30
2022-08-09T03:06:57.770Z,18.40
2022-08-09T03:09:33.731Z,18.40
2022-08-09T03:12:05.541Z,18.20
2022-08-09T03:14:38.668Z,17.70
2022-08-09T03:17:16.356Z,17.30
2022-08-09T03:19:59.481Z,17.30
2022-08-09T03:22:32.077Z,17.40
2022-08-09T03:25:26.888Z,17.80
2022-08-09T03:27:51.683Z,18.00
2022-08-09T03:30:23.734Z,18.00
2022-08-09T03:33:05.519Z,17.90
2022-08-09T03:36:11.478Z,17.90
2022-08-09T03:38:28.950Z,18.00
2022-08-09T03:40:58.526Z,18.30
2022-08-09T03:43:31.416Z,18.30
2022-08-09T03:46:05.159Z,18.20
2022-08-09T03:48:54.862Z,18.10
2022-08-09T03:51:57.123Z,18.00
2022-08-09T03:54:11.802Z,18.10
2022-08-09T03:56:41.037Z,18.10
2022-08-09T03:59:17.064Z,17.90
2022-08-09T04:01:50.663Z,18.00
2022-08-09T04:04:20.717Z,17.80
2022-08-09T04:06:52.504Z,17.70
2022-08-09T04:09:48.442Z,17.80
2022-08-09T04:12:30.911Z,17.70
2022-08-09T04:15:01.483Z,17.80
2022-08-09T04:17:31.261Z,17.80
2022-08-09T04:20:02.633Z,17.80
2022-08-09T04:22:31.846Z,17.90
2022-08-09T04:25:01.323Z,18.00
2022-08-09T04:27:31.131Z,18.00
2022-08-09T04:30:00.695Z,18.00
2022-08-09T04:32:33.696Z,17.90
2022-08-09T04:35:08.527Z,17.60
2022-08-09T04:37:45.226Z,17.50
2022-08-09T04:40:28.824Z,17.60
2022-08-09T04:43:03.523Z,17.50
2022-08-09T04:45:36.235Z,17.50
2022-08-09T04:48:19.511Z,17.40
2022-08-09T04:50:50.100Z,17.40
2022-08-09T04:53:17.934Z,17.30
2022-08-09T04:55:57.329Z,17.10
2022-08-09T04:58:27.194Z,16.90
2022-08-09T05:00:55.417Z,17.10
2022-08-09T05:03:40.389Z,17.30
2022-08-09T05:06:18.261Z,17.50
2022-08-09T05:08:53.598Z,17.60
2022-08-09T05:11:30.447Z,17.60
2022-08-09T05:14:00.629Z,17.70
2022-08-09T05:16:33.475Z,17.90
2022-08-09T05:19:14.866Z,18.00
2022-08-09T05:21:47.201Z,18.20
2022-08-09T05:24:23.324Z,18.30
2022-08-09T05:26:52.078Z,18.30
2022-08-09T05:29:22.015Z,18.30
2022-08-09T05:31:59.116Z,18.30
2022-08-09T05:34:30.900Z,18.40
2022-08-09T05:37:06.370Z,18.50
2022-08-09T05:39:43.797Z,18.50
2022-08-09T05:42:17.983Z,18.50
2022-08-09T05:45:01.858Z,18.70
2022-08-09T05:47:30.315Z,18.70
2022-08-09T05:50:24.283Z,18.80
2022-08-09T05:52:53.419Z,18.90
2022-08-09T05:55:24.003Z,19.00
2022-08-09T05:57:57.161Z,19.10
2022-08-09T06:00:26.403Z,19.00
2022-08-09T06:02:56.970Z,19.10
2022-08-09T06:05:50.011Z,19.20
2022-08-09T06:08:19.900Z,19.30
2022-08-09T06:10:53.608Z,19.50
2022-08-09T06:13:21.509Z,19.40
2022-08-09T06:15:51.547Z,19.40
2022-08-09T06:18:25.347Z,19.50
2022-08-09T06:20:54.644Z,19.40
2022-08-09T06:23:57.751Z,19.30
2022-08-09T06:26:14.941Z,19.50
2022-08-09T06:28:48.445Z,19.50
2022-08-09T06:31:16.245Z,19.60
2022-08-09T06:33:52.951Z,19.80
2022-08-09T06:36:27.193Z,19.90
2022-08-09T06:38:56.915Z,20.20
2022-08-09T06:42:07.984Z,20.40
2022-08-09T06:44:14.786Z,20.50
2022-08-09T06:46:48.211Z,20.30
2022-08-09T06:49:29.142Z,20.20
2022-08-09T06:52:06.395Z,20.50
2022-08-09T06:54:37.009Z,20.70
2022-08-09T06:57:06.794Z,20.60
2022-08-09T07:00:51.715Z,20.60
2022-08-09T07:02:29.237Z,20.90
2022-08-09T07:04:59.818Z,21.10
2022-08-09T07:08:00.418Z,21.30
2022-08-09T07:10:29.699Z,21.50
2022-08-09T07:12:59.791Z,21.80
2022-08-09T07:16:34.790Z,21.70
2022-08-09T07:18:15.818Z,21.80
2022-08-09T07:20:44.635Z,22.00
2022-08-09T07:23:18.609Z,22.20
2022-08-09T07:25:52.219Z,22.40
2022-08-09T07:28:28.062Z,22.50
2022-08-09T07:30:56.257Z,22.60
2022-08-09T07:33:24.063Z,22.80
2022-08-09T07:35:54.709Z,22.90
2022-08-09T07:38:23.406Z,23.10
2022-08-09T07:40:54.056Z,22.80
2022-08-09T07:43:41.167Z,23.00
2022-08-09T07:46:19.495Z,22.90
2022-08-09T07:48:52.748Z,23.20
2022-08-09T07:52:06.197Z,23.40
2022-08-09T07:54:15.438Z,23.40
2022-08-09T07:56:49.038Z,23.60
2022-08-09T07:59:34.755Z,23.70
2022-08-09T08:02:05.460Z,24.20
2022-08-09T08:04:34.175Z,24.50
2022-08-09T08:07:14.853Z,24.20
2022-08-09T08:10:08.291Z,23.90
2022-08-09T08:12:43.623Z,24.10
2022-08-09T08:15:14.330Z,24.20
2022-08-09T08:17:53.009Z,24.10
2022-08-09T08:20:29.216Z,24.30
2022-08-09T08:23:03.539Z,24.20
2022-08-09T08:25:46.667Z,24.00
2022-08-09T08:28:32.146Z,24.00
2022-08-09T08:31:06.123Z,24.40
2022-08-09T08:33:52.490Z,24.50
2022-08-09T08:36:29.757Z,24.40
2022-08-09T08:38:59.705Z,24.60
2022-08-09T08:41:41.893Z,24.70
2022-08-09T08:44:23.202Z,25.10
2022-08-09T08:47:02.780Z,25.20
2022-08-09T08:49:46.672Z,25.30
2022-08-09T08:52:35.033Z,25.70
2022-08-09T08:55:05.404Z,25.70
2022-08-09T08:57:35.272Z,25.90
2022-08-09T09:00:07.858Z,25.50
2022-08-09T09:02:42.894Z,25.60
2022-08-09T09:05:20.051Z,25.60
2022-08-09T09:08:02.629Z,26.00
2022-08-09T09:10:31.747Z,26.20
2022-08-09T09:12:59.604Z,26.20
2022-08-09T09:15:39.177Z,26.20
2022-08-09T09:18:08.115Z,26.30
2022-08-09T09:20:38.699Z,26.00
2022-08-09T09:23:06.662Z,26.10
2022-08-09T09:26:03.922Z,26.20
2022-08-09T09:29:02.498Z,26.40
2022-08-09T09:32:06.265Z,26.20
2022-08-09T09:34:14.468Z,25.90
2022-08-09T09:36:52.834Z,25.90
2022-08-09T09:39:25.555Z,26.00
2022-08-09T09:42:23.254Z,26.30
2022-08-09T09:44:57.800Z,26.90
2022-08-09T09:47:29.577Z,27.20
2022-08-09T09:50:14.553Z,27.20
2022-08-09T09:52:54.894Z,26.80
2022-08-09T09:55:31.334Z,26.80
2022-08-09T09:58:16.607Z,26.80
2022-08-09T10:00:52.954Z,27.00
2022-08-09T10:03:42.950Z,27.10
2022-08-09T10:06:11.671Z,27.20
2022-08-09T10:08:42.418Z,26.70
2022-08-09T10:11:59.282Z,26.90
2022-08-09T10:14:27.441Z,27.10
2022-08-09T10:17:11.446Z,27.50
2022-08-09T10:19:52.830Z,27.80
2022-08-09T10:22:33.058Z,27.80
2022-08-09T10:25:03.541Z,28.00
2022-08-09T10:27:55.955Z,28.10
2022-08-09T10:33:29.738Z,28.30
2022-08-09T10:36:04.717Z,28.30
2022-08-09T10:38:54.477Z,28.30
2022-08-09T10:41:20.980Z,28.30
2022-08-09T10:43:59.051Z,28.60
2022-08-09T10:47:00.423Z,28.90
2022-08-09T10:49:49.909Z,28.80
2022-08-09T10:52:42.970Z,28.70
2022-08-09T10:55:23.918Z,28.80
2022-08-09T10:57:52.453Z,28.30
2022-08-09T11:01:11.370Z,28.50
2022-08-09T11:03:49.766Z,28.50
2022-08-09T11:06:26.071Z,28.60
2022-08-09T11:08:59.765Z,28.70
2022-08-09T11:12:12.064Z,28.80
2022-08-09T11:14:41.890Z,29.10
2022-08-09T11:17:53.665Z,29.50
2022-08-09T11:20:43.265Z,29.80
2022-08-09T11:23:11.603Z,29.30
2022-08-09T11:25:48.192Z,29.00
2022-08-09T11:28:55.803Z,29.30
2022-08-09T11:31:52.920Z,29.50
2022-08-09T11:34:43.110Z,29.50
2022-08-09T11:37:18.151Z,29.80
2022-08-09T11:40:03.104Z,30.00
2022-08-09T11:42:48.542Z,29.60
2022-08-09T11:45:26.270Z,29.70
2022-08-09T11:48:26.164Z,30.40
2022-08-09T11:52:39.723Z,30.60
2022-08-09T11:54:13.686Z,31.00
2022-08-09T11:56:48.211Z,31.30
2022-08-09T11:59:30.715Z,31.50
2022-08-09T12:02:18.352Z,31.40
2022-08-09T12:04:58.028Z,31.10
2022-08-09T12:07:29.006Z,30.80
2022-08-09T12:10:31.822Z,31.20
2022-08-09T12:13:00.257Z,31.50
2022-08-09T12:15:49.954Z,31.20
2022-08-09T12:18:29.775Z,30.90
2022-08-09T12:21:02.662Z,30.20
2022-08-09T12:23:57.954Z,30.10
2022-08-09T12:26:26.112Z,30.00
2022-08-09T12:29:10.126Z,30.00
2022-08-09T12:31:59.013Z,30.00
2022-08-09T12:34:36.023Z,30.30
2022-08-09T12:37:21.983Z,30.10
2022-08-09T12:40:03.211Z,29.90
2022-08-09T12:42:34.152Z,29.80
2022-08-09T12:45:02.919Z,30.10
2022-08-09T12:47:53.192Z,30.30
2022-08-09T12:50:23.460Z,29.90
2022-08-09T12:53:18.163Z,29.80
2022-08-09T12:56:11.478Z,30.30
2022-08-09T12:58:29.044Z,30.30
2022-08-09T13:00:58.011Z,30.60
2022-08-09T13:03:54.153Z,30.70
2022-08-09T13:06:34.563Z,31.00
2022-08-09T13:09:10.903Z,30.80
2022-08-09T13:11:43.044Z,30.60
2022-08-09T13:14:42.139Z,30.20
2022-08-09T13:17:02.704Z,29.80
2022-08-09T13:20:07.525Z,30.20
2022-08-09T13:22:36.094Z,30.80
2022-08-09T13:25:12.126Z,30.90
2022-08-09T13:27:48.095Z,30.50
2022-08-09T13:30:49.226Z,30.70
2022-08-09T13:33:17.282Z,31.00
2022-08-09T13:36:38.768Z,31.30
2022-08-09T13:38:57.357Z,31.60
2022-08-09T13:41:55.829Z,31.70
2022-08-09T13:44:16.845Z,31.30
2022-08-09T13:47:27.369Z,30.70
2022-08-09T13:49:55.777Z,30.60
2022-08-09T13:52:23.579Z,30.50
2022-08-09T13:55:00.452Z,30.60
2022-08-09T13:57:35.691Z,30.30
2022-08-09T14:00:08.063Z,30.00
2022-08-09T14:02:42.061Z,29.90
2022-08-09T14:05:12.163Z,29.90
2022-08-09T14:07:43.058Z,30.00
2022-08-09T14:10:17.179Z,30.30
2022-08-09T14:12:57.066Z,30.80
2022-08-09T14:16:10.526Z,30.70
2022-08-09T14:18:19.143Z,30.90
2022-08-09T14:20:48.922Z,30.20
2022-08-09T14:23:20.310Z,29.60
2022-08-09T14:26:06.657Z,29.70
2022-08-09T14:28:35.598Z,29.40
2022-08-09T14:31:03.640Z,29.50
2022-08-09T14:33:31.833Z,29.70
2022-08-09T14:36:19.625Z,30.10
2022-08-09T14:38:53.212Z,30.40
2022-08-09T14:41:40.216Z,30.70
2022-08-09T14:44:11.168Z,31.10
2022-08-09T14:47:01.488Z,31.60
2022-08-09T14:49:27.302Z,31.50
2022-08-09T14:51:58.813Z,31.50
2022-08-09T14:54:28.558Z,31.50
2022-08-09T14:56:58.704Z,30.90
2022-08-09T14:59:28.463Z,30.30
2022-08-09T15:01:56.841Z,30.10
2022-08-09T15:04:26.326Z,30.20
2022-08-09T15:06:54.329Z,30.50
2022-08-09T15:10:03.532Z,30.80
2022-08-09T15:12:12.397Z,30.60
2022-08-09T15:14:40.213Z,31.00
2022-08-09T15:17:09.591Z,31.20
2022-08-09T15:19:59.510Z,31.00
2022-08-09T15:22:26.098Z,30.60
2022-08-09T15:24:54.544Z,30.30
2022-08-09T15:27:23.892Z,30.50
2022-08-09T15:30:57.051Z,30.40
2022-08-09T15:32:43.272Z,30.00
2022-08-09T15:35:40.008Z,30.10
2022-08-09T15:38:11.758Z,30.30
2022-08-09T15:40:43.679Z,30.00
2022-08-09T15:43:14.229Z,30.00
2022-08-09T15:45:51.964Z,29.90
2022-08-09T15:48:31.886Z,30.00
2022-08-09T15:51:00.368Z,29.90
2022-08-09T15:54:05.277Z,29.90
2022-08-09T15:56:21.389Z,29.60
2022-08-09T15:58:58.043Z,29.40
2022-08-09T16:01:25.968Z,29.30
2022-08-09T16:03:53.781Z,29.30
2022-08-09T16:06:35.868Z,29.50
2022-08-09T16:09:06.487Z,29.50
2022-08-09T16:11:34.829Z,29.60
2022-08-09T16:14:08.044Z,29.40
2022-08-09T16:16:36.866Z,29.30
2022-08-09T16:19:05.929Z,29.20
2022-08-09T16:21:48.688Z,29.10
2022-08-09T16:24:33.797Z,29.10
2022-08-09T16:27:02.312Z,29.40
2022-08-09T16:29:37.286Z,29.40
2022-08-09T16:32:18.924Z,29.40
2022-08-09T16:34:57.947Z,29.50
2022-08-09T16:37:55.830Z,29.20
2022-08-09T16:40:20.573Z,29.00
2022-08-09T16:42:58.237Z,28.60
2022-08-09T16:45:27.661Z,28.30
2022-08-09T16:48:41.193Z,28.30
2022-08-09T16:50:49.625Z,28.30
2022-08-09T16:53:34.004Z,28.40
2022-08-09T16:56:09.402Z,28.60
2022-08-09T16:58:39.896Z,28.50
2022-08-09T17:01:12.087Z,28.50
2022-08-09T17:03:41.655Z,28.60
2022-08-09T17:06:32.040Z,28.60
2022-08-09T17:09:11.841Z,28.40
2022-08-09T17:11:48.259Z,28.20
2022-08-09T17:14:28.148Z,28.10
2022-08-09T17:17:01.474Z,28.10
2022-08-09T17:20:06.209Z,28.00
2022-08-09T17:22:23.833Z,27.90
2022-08-09T17:25:03.718Z,28.20
2022-08-09T17:27:33.015Z,28.10
2022-08-09T17:30:06.831Z,28.00
2022-08-09T17:32:44.141Z,28.10
2022-08-09T17:35:13.127Z,28.00
2022-08-09T17:38:02.781Z,27.80
2022-08-09T17:40:32.654Z,27.60
2022-08-09T17:43:03.311Z,27.60
2022-08-09T17:46:03.142Z,27.50
2022-08-09T17:48:29.483Z,27.50
2022-08-09T17:51:06.477Z,27.40
2022-08-09T17:53:43.436Z,27.40
2022-08-09T17:56:18.170Z,27.60
2022-08-09T17:58:52.458Z,27.60
2022-08-09T18:01:22.508Z,27.60
2022-08-09T18:03:54.615Z,27.60
2022-08-09T18:06:31.189Z,27.50
2022-08-09T18:09:01.608Z,27.30
2022-08-09T18:11:32.168Z,27.40
2022-08-09T18:14:19.979Z,27.50
2022-08-09T18:16:48.743Z,27.40
2022-08-09T18:20:57.185Z,27.50
2022-08-09T18:22:13.180Z,27.30
2022-08-09T18:28:03.700Z,27.10
2022-08-09T18:30:41.834Z,27.10
2022-08-09T18:33:15.094Z,27.00
2022-08-09T18:35:58.989Z,26.80
2022-08-09T18:38:28.234Z,26.80
2022-08-09T18:40:56.252Z,26.70
2022-08-09T18:43:25.914Z,26.60
2022-08-09T18:46:50.477Z,26.70
2022-08-09T18:48:42.793Z,26.60
2022-08-09T18:51:12.017Z,26.40
2022-08-09T18:53:59.826Z,26.40
2022-08-09T18:56:28.523Z,26.60
2022-08-09T18:58:56.887Z,26.70
2022-08-09T19:01:25.607Z,26.70
2022-08-09T19:04:06.163Z,26.80
2022-08-09T19:06:38.575Z,26.80
2022-08-09T19:09:07.740Z,26.80
2022-08-09T19:11:41.718Z,26.80
2022-08-09T19:14:09.533Z,26.80
2022-08-09T19:16:38.071Z,26.90
2022-08-09T19:19:21.521Z,26.70
2022-08-09T19:22:06.295Z,26.60
2022-08-09T19:25:09.114Z,26.60
2022-08-09T19:27:23.233Z,26.50
2022-08-09T19:30:21.589Z,26.50
2022-08-09T19:32:38.858Z,26.30
2022-08-09T19:35:07.936Z,26.10
2022-08-09T19:37:54.611Z,25.80
2022-08-09T19:40:33.440Z,25.60
2022-08-09T19:43:05.131Z,25.30
2022-08-09T19:45:40.106Z,25.10
2022-08-09T19:48:10.808Z,25.00
2022-08-09T19:50:50.717Z,24.70
2022-08-09T19:53:21.135Z,24.50
2022-08-09T19:56:02.449Z,24.20
2022-08-09T19:58:34.817Z,23.90
2022-08-09T20:01:04.052Z,23.70
2022-08-09T20:04:25.133Z,23.60
2022-08-09T20:06:23.372Z,23.30
2022-08-09T20:08:59.551Z,23.10
2022-08-09T20:11:42.933Z,23.20
2022-08-09T20:14:15.283Z,23.30
2022-08-09T20:16:49.923Z,23.30
2022-08-09T20:19:49.156Z,23.00
2022-08-09T20:22:10.446Z,22.80
2022-08-09T20:24:53.376Z,22.80
2022-08-09T20:27:22.576Z,22.80
2022-08-09T20:29:50.488Z,22.90
2022-08-09T20:32:40.193Z,23.00
2022-08-09T20:35:07.119Z,22.90
2022-08-09T20:38:20.415Z,22.80
2022-08-09T20:40:27.070Z,22.70
2022-08-09T20:42:59.841Z,22.60
2022-08-09T20:46:01.452Z,22.50
2022-08-09T20:48:29.077Z,22.30
2022-08-09T20:50:59.103Z,22.30
2022-08-09T20:53:36.220Z,22.40
2022-08-09T20:56:19.827Z,22.30
2022-08-09T20:58:49.713Z,22.40
2022-08-09T21:01:35.398Z,22.50
2022-08-09T21:05:49.486Z,22.50
2022-08-09T21:06:53.992Z,22.70
2022-08-09T21:09:41.530Z,22.70
2022-08-09T21:14:42.010Z,22.80
2022-08-09T21:18:11.317Z,22.60
2022-08-09T21:20:19.212Z,22.50
2022-08-09T21:22:52.586Z,22.40
2022-08-09T21:25:44.468Z,22.20
2022-08-09T21:28:34.491Z,22.30
2022-08-09T21:31:16.563Z,22.30
2022-08-09T21:33:50.854Z,22.40
2022-08-09T21:36:20.471Z,22.40
2022-08-09T21:38:51.100Z,22.30
2022-08-09T21:42:04.148Z,22.30
2022-08-09T21:44:33.341Z,22.10
2022-08-09T21:47:04.970Z,22.00
2022-08-09T21:49:40.247Z,21.80
2022-08-09T21:52:16.341Z,21.60
2022-08-09T21:54:49.535Z,21.30
2022-08-09T21:57:37.534Z,21.60
2022-08-09T22:00:12.856Z,21.60
2022-08-09T22:02:42.877Z,21.60
2022-08-09T22:05:23.041Z,21.70
2022-08-09T22:07:53.296Z,21.40
2022-08-09T22:10:24.031Z,21.40
2022-08-09T22:12:52.692Z,21.40
2022-08-09T22:15:23.319Z,21.20
2022-08-09T22:18:04.068Z,21.20
2022-08-09T22:20:32.259Z,21.10
2022-08-09T22:23:00.382Z,20.70
2022-08-09T22:26:07.089Z,20.50
2022-08-09T22:28:21.129Z,20.50
2022-08-09T22:31:02.867Z,20.70
2022-08-09T22:33:42.591Z,20.70
2022-08-09T22:36:19.401Z,20.80
2022-08-09T22:38:47.810Z,20.80
2022-08-09T22:41:16.165Z,20.90
2022-08-09T22:44:03.320Z,21.00
2022-08-09T22:48:16.877Z,21.00
2022-08-09T22:49:21.857Z,20.90
2022-08-09T22:51:57.408Z,20.80
2022-08-09T22:54:27.301Z,20.50
2022-08-09T22:56:56.989Z,20.40
2022-08-09T22:59:56.800Z,20.20
2022-08-09T23:02:20.302Z,20.00
2022-08-09T23:04:54.071Z,19.70
2022-08-09T23:08:27.367Z,19.70
2022-08-09T23:10:29.207Z,19.70
2022-08-09T23:12:57.076Z,19.60
2022-08-09T23:15:25.032Z,19.60
2022-08-09T23:17:54.164Z,19.70
2022-08-09T23:20:22.399Z,19.80
2022-08-09T23:22:50.199Z,19.70
2022-08-09T23:25:17.980Z,19.90
2022-08-09T23:28:14.018Z,20.00
2022-08-09T23:30:33.559Z,20.20
2022-08-09T23:33:02.682Z,20.30
2022-08-09T23:35:30.430Z,20.40
2022-08-09T23:38:18.584Z,20.40
2022-08-09T23:40:46.585Z,20.50
2022-08-09T23:43:14.348Z,20.60
2022-08-09T23:45:42.090Z,20.50
2022-08-09T23:48:11.261Z,20.30
2022-08-09T23:50:39.145Z,20.30
2022-08-09T23:53:07.105Z,20.20
2022-08-09T23:55:37.991Z,19.90
2022-08-09T23:58:09.330Z,19.90
